createdAt,value
2023-02-24T00:14:34.816Z,12.15
2023-02-24T00:29:40.206Z,12.17
2023-02-24T00:44:45.654Z,12.15
2023-02-24T00:59:51.757Z,12.13
2023-02-24T01:14:53.893Z,12.14
2023-02-24T01:29:55.373Z,12.13
2023-02-24T01:45:06.122Z,12.11
2023-02-24T02:00:11.264Z,12.10
2023-02-24T02:15:14.515Z,12.10
2023-02-24T02:30:19.663Z,12.12
2023-02-24T02:45:21.180Z,12.10
2023-02-24T03:00:29.202Z,12.10
2023-02-24T03:15:32.831Z,12.09
2023-02-24T03:30:51.842Z,12.09
2023-02-24T03:45:54.698Z,12.09
2023-02-24T04:00:56.177Z,12.09
2023-02-24T04:16:17.125Z,12.09
2023-02-24T04:31:19.753Z,12.06
2023-02-24T04:46:23.480Z,12.06
2023-02-24T05:01:25.091Z,12.04
2023-02-24T05:16:28.927Z,12.05
2023-02-24T05:31:31.098Z,12.04
2023-02-24T05:46:33.728Z,12.02
2023-02-24T06:01:36.687Z,12.04
2023-02-24T06:16:43.587Z,12.04
2023-02-24T06:31:45.383Z,12.03
2023-02-24T06:46:46.928Z,12.06
2023-02-24T07:01:49.216Z,12.04
2023-02-24T07:17:00.369Z,12.06
2023-02-24T07:32:05.691Z,12.05
2023-02-24T07:47:08.456Z,12.06
2023-02-24T08:02:11.485Z,12.03
2023-02-24T08:17:18.917Z,12.03
2023-02-24T08:32:20.995Z,12.07
2023-02-24T08:47:31.137Z,12.11
2023-02-24T09:02:37.488Z,12.13
2023-02-24T09:17:45.217Z,12.18
2023-02-24T09:32:47.854Z,12.24
2023-02-24T09:47:59.206Z,12.27
2023-02-24T10:03:19.670Z,12.31
2023-02-24T10:18:27.522Z,12.32
2023-02-24T10:33:37.844Z,12.31
2023-02-24T10:48:41.734Z,12.34
2023-02-24T11:04:01.485Z,12.32
2023-02-24T11:19:05.524Z,12.38
2023-02-24T11:34:10.036Z,12.41
2023-02-24T11:49:31.945Z,12.43
2023-02-24T12:04:39.731Z,12.45
2023-02-24T12:19:51.935Z,12.49
2023-02-24T12:34:59.442Z,12.47
2023-02-24T12:50:01.015Z,12.52
2023-02-24T13:05:11.724Z,12.46
2023-02-24T13:20:14.775Z,12.45
2023-02-24T13:35:16.256Z,12.47
2023-02-24T13:50:25.347Z,12.47
2023-02-24T14:05:30.187Z,12.45
2023-02-24T14:20:33.678Z,12.46
2023-02-24T14:35:46.747Z,12.45
2023-02-24T14:50:48.318Z,12.44
2023-02-24T15:05:51.679Z,12.44
2023-02-24T15:21:03.273Z,12.43
2023-02-24T15:36:15.527Z,12.42
2023-02-24T15:51:21.882Z,12.40
2023-02-24T16:06:24.220Z,12.39
2023-02-24T16:21:25.874Z,12.37
2023-02-24T16:36:28.551Z,12.37
2023-02-24T16:51:31.266Z,12.35
2023-02-24T17:06:33.875Z,12.35
2023-02-24T17:21:35.890Z,12.33
2023-02-24T17:36:37.390Z,12.34
2023-02-24T17:51:38.940Z,12.33
2023-02-24T18:06:41.063Z,12.32
2023-02-24T18:21:42.544Z,12.32
2023-02-24T18:36:44.093Z,12.31
2023-02-24T18:51:46.609Z,12.31
2023-02-24T19:06:49.249Z,12.28
2023-02-24T19:21:53.112Z,12.27
2023-02-24T19:36:54.723Z,12.26
2023-02-24T19:51:57.147Z,12.26
2023-02-24T20:06:58.784Z,12.23
2023-02-24T20:22:00.995Z,12.22
2023-02-24T20:37:02.552Z,12.23
2023-02-24T20:52:04.294Z,12.21
2023-02-24T21:07:05.853Z,12.16
2023-02-24T21:22:07.361Z,12.14
2023-02-24T21:37:09.204Z,12.11
2023-02-24T21:52:11.622Z,12.08
2023-02-24T22:07:13.254Z,12.06
2023-02-24T22:22:14.832Z,12.03
2023-02-24T22:37:16.493Z,12.04
2023-02-24T22:52:18.242Z,12.00
2023-02-24T23:07:19.840Z,11.97
2023-02-24T23:22:22.270Z,11.96
2023-02-24T23:37:23.893Z,11.97
2023-02-24T23:52:25.458Z,11.95
